createdAt,value
2019-01-08T00:00:03.785Z,14.80
2019-01-08T00:01:02.615Z,15.00
2019-01-08T00:02:02.598Z,14.60
2019-01-08T00:03:02.596Z,15.30
2019-01-08T00:04:02.587Z,17.10
2019-01-08T00:05:02.577Z,15.70
2019-01-08T00:06:02.569Z,14.00
2019-01-08T00:07:02.564Z,14.60
2019-01-08T00:08:02.551Z,15.60
2019-01-08T00:10:34.723Z,15.30
2019-01-08T00:11:34.705Z,14.90
2019-01-08T00:13:27.601Z,13.80
2019-01-08T00:14:27.582Z,14.80
2019-01-08T00:16:20.968Z,16.70
2019-01-08T00:17:20.948Z,14.50
2019-01-08T00:19:14.337Z,14.70
2019-01-08T00:20:14.314Z,15.40
2019-01-08T00:22:07.694Z,13.60
2019-01-08T00:33:51.698Z,14.30
2019-01-08T00:34:33.092Z,14.10
2019-01-08T00:36:26.475Z,13.20
2019-01-08T00:37:26.462Z,13.60
2019-01-08T00:39:19.849Z,14.30
2019-01-08T00:40:19.827Z,13.10
2019-01-08T00:42:13.207Z,12.80
2019-01-08T00:43:13.195Z,13.70
2019-01-08T00:45:06.592Z,13.00
2019-01-08T00:46:06.570Z,13.30
2019-01-08T00:47:59.955Z,13.20
2019-01-08T00:48:59.941Z,13.00
2019-01-08T00:50:53.330Z,12.20
2019-01-08T00:51:53.310Z,12.60
2019-01-08T00:53:46.699Z,12.30
2019-01-08T00:54:46.698Z,12.50
2019-01-08T00:56:40.079Z,11.20
2019-01-08T00:57:40.052Z,11.90
2019-01-08T00:59:33.442Z,12.50
2019-01-08T01:00:33.419Z,12.60
2019-01-08T01:02:26.799Z,12.20
2019-01-08T01:03:26.788Z,12.30
2019-01-08T01:05:20.177Z,12.00
2019-01-08T01:06:20.150Z,11.90
2019-01-08T01:08:13.052Z,12.80
2019-01-08T01:09:13.035Z,11.60
2019-01-08T01:11:06.429Z,13.00
2019-01-08T01:12:06.403Z,13.00
2019-01-08T01:13:59.781Z,12.50
2019-01-08T01:14:59.769Z,12.90
2019-01-08T01:16:53.159Z,11.70
2019-01-08T01:17:53.139Z,12.00
2019-01-08T01:19:46.537Z,12.40
2019-01-08T01:20:46.515Z,11.70
2019-01-08T01:22:39.903Z,11.30
2019-01-08T01:23:39.892Z,12.00
2019-01-08T01:25:33.289Z,12.20
2019-01-08T01:26:33.269Z,12.00
2019-01-08T01:28:26.657Z,12.10
2019-01-08T01:29:26.648Z,11.20
2019-01-08T01:31:20.035Z,11.80
2019-01-08T01:32:20.013Z,11.90
2019-01-08T01:33:20.006Z,11.90
2019-01-08T01:34:19.994Z,11.00
2019-01-08T01:35:19.987Z,10.80
2019-01-08T01:36:19.981Z,10.10
2019-01-08T01:37:19.969Z,11.60
2019-01-08T01:38:19.960Z,11.70
2019-01-08T01:39:19.954Z,10.70
2019-01-08T01:40:19.942Z,9.90
2019-01-08T01:41:19.937Z,10.70
2019-01-08T01:42:19.926Z,10.70
2019-01-08T01:43:19.921Z,11.00
2019-01-08T01:44:19.911Z,10.90
2019-01-08T01:45:19.904Z,10.20
2019-01-08T01:46:19.905Z,10.40
2019-01-08T01:47:19.894Z,10.70
2019-01-08T01:48:19.878Z,10.00
2019-01-08T01:49:19.869Z,10.50
2019-01-08T01:50:19.861Z,10.70
2019-01-08T01:51:19.851Z,10.40
2019-01-08T01:52:19.844Z,10.40
2019-01-08T01:53:19.834Z,10.00
2019-01-08T01:54:19.827Z,10.10
2019-01-08T01:55:19.820Z,10.60
2019-01-08T01:56:19.808Z,10.80
2019-01-08T01:57:19.802Z,10.00
2019-01-08T01:58:19.794Z,10.20
2019-01-08T01:59:19.787Z,10.20
2019-01-08T02:00:19.777Z,10.00
2019-01-08T02:01:19.769Z,10.50
2019-01-08T02:02:19.761Z,10.10
2019-01-08T02:03:19.752Z,10.10
2019-01-08T02:04:19.744Z,9.40
2019-01-08T02:05:19.735Z,10.00
2019-01-08T02:06:19.727Z,9.70
2019-01-08T02:07:19.722Z,10.30
2019-01-08T02:08:19.710Z,9.60
2019-01-08T02:09:19.700Z,9.00
2019-01-08T02:10:19.696Z,9.50
2019-01-08T02:11:19.683Z,9.90
2019-01-08T02:12:19.680Z,10.10
2019-01-08T02:13:19.669Z,8.90
2019-01-08T02:14:19.658Z,9.10
2019-01-08T02:15:19.652Z,9.20
2019-01-08T02:16:19.642Z,9.50
2019-01-08T02:17:19.636Z,9.40
2019-01-08T02:18:19.625Z,8.80
2019-01-08T02:19:19.620Z,8.90
2019-01-08T02:20:19.609Z,10.30
2019-01-08T02:21:19.606Z,9.80
2019-01-08T02:22:19.591Z,9.80
2019-01-08T02:23:19.585Z,9.80
2019-01-08T02:24:19.576Z,9.70
2019-01-08T02:25:19.569Z,10.00
2019-01-08T02:26:19.562Z,9.80
2019-01-08T02:27:19.550Z,11.20
2019-01-08T02:28:19.546Z,10.90
2019-01-08T02:29:19.535Z,11.20
2019-01-08T02:30:19.528Z,10.90
2019-01-08T02:31:19.518Z,10.30
2019-01-08T02:32:21.892Z,10.70
2019-01-08T02:33:19.501Z,10.90
2019-01-08T02:34:19.492Z,10.70
2019-01-08T02:35:19.483Z,11.50
2019-01-08T02:36:19.478Z,11.20
2019-01-08T02:37:19.470Z,9.90
2019-01-08T02:38:19.460Z,10.80
2019-01-08T02:39:19.456Z,10.80
2019-01-08T02:40:19.443Z,10.60
2019-01-08T02:41:19.474Z,10.80
2019-01-08T02:42:19.425Z,11.50
2019-01-08T02:43:19.419Z,11.40
2019-01-08T02:44:19.452Z,11.00
2019-01-08T02:45:19.409Z,10.40
2019-01-08T02:46:19.566Z,10.70
2019-01-08T02:47:19.386Z,10.40
2019-01-08T02:48:19.377Z,10.80
2019-01-08T02:49:19.373Z,10.50
2019-01-08T02:50:19.363Z,10.60
2019-01-08T02:51:19.352Z,11.30
2019-01-08T02:52:19.346Z,11.20
2019-01-08T02:53:19.338Z,11.20
2019-01-08T02:54:19.402Z,11.20
2019-01-08T02:55:19.318Z,11.70
2019-01-08T02:56:19.311Z,12.40
2019-01-08T02:57:19.302Z,12.30
2019-01-08T02:58:19.295Z,12.00
2019-01-08T02:59:25.096Z,11.70
2019-01-08T03:00:19.281Z,11.50
2019-01-08T03:01:19.271Z,11.70
2019-01-08T03:02:19.261Z,11.60
2019-01-08T03:03:19.253Z,11.30
2019-01-08T03:04:19.246Z,11.20
2019-01-08T03:05:19.237Z,11.30
2019-01-08T03:06:19.230Z,11.60
2019-01-08T03:07:19.221Z,11.90
2019-01-08T03:08:19.213Z,12.30
2019-01-08T03:09:19.204Z,11.10
2019-01-08T03:10:19.197Z,12.00
2019-01-08T03:11:19.189Z,11.60
2019-01-08T03:12:19.181Z,12.40
2019-01-08T03:13:19.173Z,12.30
2019-01-08T03:14:19.165Z,11.70
2019-01-08T03:15:19.155Z,11.50
2019-01-08T03:16:19.149Z,11.80
2019-01-08T03:17:19.140Z,11.20
2019-01-08T03:18:19.130Z,12.30
2019-01-08T03:19:19.122Z,11.70
2019-01-08T03:20:19.114Z,12.00
2019-01-08T03:21:19.108Z,12.20
2019-01-08T03:22:19.099Z,11.90
2019-01-08T03:23:19.089Z,12.20
2019-01-08T03:24:19.083Z,12.00
2019-01-08T03:25:19.075Z,11.40
2019-01-08T03:26:19.067Z,11.40
2019-01-08T03:27:19.057Z,11.70
2019-01-08T03:28:19.050Z,11.40
2019-01-08T03:29:19.043Z,11.60
2019-01-08T03:30:19.034Z,12.20
2019-01-08T03:31:19.026Z,12.10
2019-01-08T03:32:19.017Z,12.20
2019-01-08T03:33:19.010Z,13.00
2019-01-08T03:34:19.001Z,12.50
2019-01-08T03:35:18.994Z,13.30
2019-01-08T03:36:18.990Z,13.20
2019-01-08T03:37:18.978Z,13.30
2019-01-08T03:38:18.969Z,13.00
2019-01-08T03:39:18.960Z,12.00
2019-01-08T03:40:18.954Z,12.80
2019-01-08T03:41:18.944Z,11.20
2019-01-08T03:42:18.933Z,11.90
2019-01-08T03:43:18.928Z,11.10
2019-01-08T03:44:18.920Z,10.80
2019-01-08T03:45:18.911Z,10.90
2019-01-08T03:46:18.904Z,11.20
2019-01-08T03:47:18.967Z,11.30
2019-01-08T03:48:18.887Z,11.40
2019-01-08T03:49:18.882Z,11.70
2019-01-08T03:50:18.872Z,11.60
2019-01-08T03:51:18.862Z,11.00
2019-01-08T03:52:18.853Z,11.00
2019-01-08T03:53:18.848Z,10.50
2019-01-08T03:54:18.838Z,10.70
2019-01-08T03:55:18.827Z,10.90
2019-01-08T03:56:18.822Z,11.20
2019-01-08T03:57:18.815Z,10.50
2019-01-08T03:58:18.803Z,11.20
2019-01-08T03:59:18.796Z,10.50
2019-01-08T04:00:18.788Z,10.70
2019-01-08T04:01:18.780Z,10.50
2019-01-08T04:02:18.771Z,10.80
2019-01-08T04:03:18.765Z,9.60
2019-01-08T04:04:18.756Z,10.20
2019-01-08T04:05:18.748Z,10.30
2019-01-08T04:06:18.738Z,10.10
2019-01-08T04:07:18.732Z,10.30
2019-01-08T04:08:18.726Z,9.20
2019-01-08T04:09:18.715Z,9.70
2019-01-08T04:10:18.706Z,9.60
2019-01-08T04:11:18.697Z,9.70
2019-01-08T04:12:18.688Z,9.60
2019-01-08T04:13:18.681Z,8.60
2019-01-08T04:14:18.672Z,9.50
2019-01-08T04:15:18.665Z,8.80
2019-01-08T04:16:18.659Z,9.50
2019-01-08T04:17:18.652Z,9.00
2019-01-08T04:18:18.639Z,9.10
2019-01-08T04:19:18.629Z,8.70
2019-01-08T04:20:18.624Z,7.90
2019-01-08T04:21:18.614Z,8.20
2019-01-08T04:22:18.605Z,7.70
2019-01-08T04:23:18.598Z,7.10
2019-01-08T04:24:18.589Z,6.40
2019-01-08T04:25:18.580Z,7.30
2019-01-08T04:26:18.576Z,6.50
2019-01-08T04:27:18.564Z,7.10
2019-01-08T04:28:18.555Z,7.30
2019-01-08T04:29:18.547Z,6.80
2019-01-08T04:30:18.540Z,6.50
2019-01-08T04:31:18.535Z,6.80
2019-01-08T04:32:18.524Z,7.80
2019-01-08T04:33:18.514Z,7.00
2019-01-08T04:34:18.505Z,6.90
2019-01-08T04:35:18.496Z,7.00
2019-01-08T04:36:18.489Z,7.20
2019-01-08T04:37:18.481Z,6.70
2019-01-08T04:38:18.472Z,7.10
2019-01-08T04:39:18.469Z,7.00
2019-01-08T04:40:18.456Z,7.00
2019-01-08T04:41:18.446Z,7.00
2019-01-08T04:42:18.437Z,7.20
2019-01-08T04:43:18.431Z,7.00
2019-01-08T04:44:18.422Z,7.30
2019-01-08T04:45:18.413Z,7.50
2019-01-08T04:46:18.404Z,8.10
2019-01-08T04:47:18.396Z,7.40
2019-01-08T04:48:18.387Z,8.20
2019-01-08T04:49:18.378Z,8.20
2019-01-08T04:50:18.369Z,8.20
2019-01-08T04:51:18.362Z,7.60
2019-01-08T04:52:18.356Z,8.80
2019-01-08T04:53:18.347Z,8.30
2019-01-08T04:54:18.337Z,7.90
2019-01-08T04:55:18.329Z,7.50
2019-01-08T04:56:18.322Z,7.50
2019-01-08T04:57:18.311Z,7.50
2019-01-08T04:58:18.306Z,7.60
2019-01-08T04:59:18.295Z,7.10
2019-01-08T05:00:18.287Z,7.00
2019-01-08T05:01:18.278Z,7.50
2019-01-08T05:02:18.270Z,7.10
2019-01-08T05:03:18.261Z,7.10
2019-01-08T05:04:18.252Z,7.10
2019-01-08T05:05:18.246Z,6.80
2019-01-08T05:06:18.235Z,6.60
2019-01-08T05:07:18.227Z,6.50
2019-01-08T05:08:18.218Z,6.40
2019-01-08T05:09:18.211Z,6.10
2019-01-08T05:10:18.200Z,6.50
2019-01-08T05:11:18.191Z,6.00
2019-01-08T05:12:18.184Z,5.90
2019-01-08T05:13:18.176Z,6.20
2019-01-08T05:14:18.165Z,5.80
2019-01-08T05:15:18.157Z,5.90
2019-01-08T05:16:18.148Z,5.00
2019-01-08T05:17:18.141Z,5.50
2019-01-08T05:18:18.131Z,5.60
2019-01-08T05:19:18.123Z,5.70
2019-01-08T05:20:18.115Z,5.30
2019-01-08T05:21:18.108Z,4.60
2019-01-08T05:22:18.095Z,5.30
2019-01-08T05:23:18.089Z,4.70
2019-01-08T05:24:18.081Z,4.80
2019-01-08T05:25:18.074Z,4.90
2019-01-08T05:26:18.062Z,4.80
2019-01-08T05:27:18.055Z,5.00
2019-01-08T05:28:18.045Z,5.20
2019-01-08T05:29:18.036Z,5.00
2019-01-08T05:30:18.028Z,4.90
2019-01-08T05:31:18.019Z,4.70
2019-01-08T05:32:18.010Z,4.90
2019-01-08T05:33:18.001Z,5.10
2019-01-08T05:34:17.993Z,5.10
2019-01-08T05:35:17.985Z,4.90
2019-01-08T05:36:17.979Z,5.10
2019-01-08T05:37:17.967Z,4.60
2019-01-08T05:38:17.958Z,4.80
2019-01-08T05:39:17.948Z,4.90
2019-01-08T05:40:17.941Z,4.90
2019-01-08T05:41:17.934Z,4.80
2019-01-08T05:42:17.924Z,4.70
2019-01-08T05:43:17.918Z,5.30
2019-01-08T05:44:17.910Z,4.70
2019-01-08T05:45:17.890Z,4.80
2019-01-08T05:46:17.890Z,4.70
2019-01-08T05:47:17.881Z,4.70
2019-01-08T05:48:17.871Z,4.40
2019-01-08T05:49:17.864Z,4.70
2019-01-08T05:50:17.856Z,4.60
2019-01-08T05:51:17.849Z,4.40
2019-01-08T05:52:17.839Z,4.70
2019-01-08T05:53:17.830Z,4.40
2019-01-08T05:54:17.819Z,4.60
2019-01-08T05:55:18.286Z,4.80
2019-01-08T05:56:17.804Z,4.10
2019-01-08T05:57:17.794Z,4.50
2019-01-08T05:58:17.787Z,4.50
2019-01-08T05:59:17.776Z,3.90
2019-01-08T06:00:17.777Z,4.40
2019-01-08T06:01:17.760Z,4.20
2019-01-08T06:02:17.757Z,4.20
2019-01-08T06:03:17.743Z,4.00
2019-01-08T06:04:17.736Z,4.20
2019-01-08T06:05:17.776Z,4.30
2019-01-08T06:06:17.718Z,4.00
2019-01-08T06:07:17.711Z,4.40
2019-01-08T06:08:17.702Z,4.10
2019-01-08T06:09:17.697Z,4.30
2019-01-08T06:10:17.685Z,4.50
2019-01-08T06:11:17.676Z,4.20
2019-01-08T06:12:17.667Z,4.20
2019-01-08T06:13:17.661Z,4.80
2019-01-08T06:14:17.653Z,4.70
2019-01-08T06:15:17.642Z,4.50
2019-01-08T06:16:17.649Z,3.90
2019-01-08T06:17:17.625Z,3.80
2019-01-08T06:18:17.617Z,4.20
2019-01-08T06:19:17.607Z,4.30
2019-01-08T06:20:17.602Z,3.80
2019-01-08T06:21:17.593Z,4.40
2019-01-08T06:22:17.582Z,4.40
2019-01-08T06:23:17.576Z,4.40
2019-01-08T06:24:17.567Z,3.80
2019-01-08T06:25:17.560Z,4.00
2019-01-08T06:26:17.547Z,4.30
2019-01-08T06:27:17.541Z,3.90
2019-01-08T06:28:17.533Z,4.20
2019-01-08T06:29:17.524Z,4.40
2019-01-08T06:30:24.724Z,4.20
2019-01-08T06:31:17.504Z,3.80
2019-01-08T06:32:17.498Z,3.80
2019-01-08T06:33:17.490Z,4.20
2019-01-08T06:34:17.482Z,3.70
2019-01-08T06:35:17.475Z,4.10
2019-01-08T06:36:17.464Z,3.90
2019-01-08T06:37:17.456Z,3.90
2019-01-08T06:38:17.448Z,3.80
2019-01-08T06:39:17.440Z,4.30
2019-01-08T06:40:17.435Z,4.00
2019-01-08T06:41:17.421Z,4.00
2019-01-08T06:42:17.415Z,4.00
2019-01-08T06:43:17.639Z,4.00
2019-01-08T06:44:17.397Z,3.80
2019-01-08T06:45:17.389Z,3.80
2019-01-08T06:46:17.379Z,4.00
2019-01-08T06:47:17.371Z,4.20
2019-01-08T06:48:17.364Z,3.80
2019-01-08T06:49:17.355Z,3.90
2019-01-08T06:50:17.347Z,3.90
2019-01-08T06:51:17.339Z,3.70
2019-01-08T06:52:17.374Z,3.70
2019-01-08T06:53:17.324Z,3.70
2019-01-08T06:54:17.317Z,3.60
2019-01-08T06:55:17.305Z,4.20
2019-01-08T06:56:17.297Z,3.80
2019-01-08T06:57:17.288Z,3.80
2019-01-08T06:58:17.281Z,3.70
2019-01-08T06:59:17.272Z,3.90
2019-01-08T07:00:17.262Z,3.70
2019-01-08T07:01:17.254Z,4.20
2019-01-08T07:02:17.247Z,3.80
2019-01-08T07:03:17.239Z,3.70
2019-01-08T07:04:17.230Z,3.80
2019-01-08T07:05:17.222Z,3.70
2019-01-08T07:06:17.212Z,3.50
2019-01-08T07:07:17.203Z,3.40
2019-01-08T07:08:17.195Z,3.30
2019-01-08T07:09:17.189Z,3.80
2019-01-08T07:10:17.180Z,3.70
2019-01-08T07:11:17.169Z,4.10
2019-01-08T07:12:17.163Z,3.50
2019-01-08T07:13:17.157Z,3.90
2019-01-08T07:14:17.145Z,3.60
2019-01-08T07:15:17.138Z,3.80
2019-01-08T07:16:17.131Z,3.90
2019-01-08T07:17:17.126Z,3.80
2019-01-08T07:18:17.111Z,4.00
2019-01-08T07:19:17.109Z,4.00
2019-01-08T07:20:17.094Z,3.60
2019-01-08T07:21:17.087Z,3.80
2019-01-08T07:22:17.088Z,3.70
2019-01-08T07:23:17.069Z,3.60
2019-01-08T07:24:17.063Z,3.90
2019-01-08T07:25:17.054Z,3.70
2019-01-08T07:26:17.046Z,3.50
2019-01-08T07:27:17.042Z,3.80
2019-01-08T07:28:17.029Z,3.50
2019-01-08T07:29:17.021Z,3.40
2019-01-08T07:30:17.013Z,3.70
2019-01-08T07:31:17.002Z,3.80
2019-01-08T07:32:16.995Z,3.60
2019-01-08T07:33:16.989Z,3.40
2019-01-08T07:34:16.978Z,3.40
2019-01-08T07:35:16.970Z,3.60
2019-01-08T07:36:16.961Z,3.50
2019-01-08T07:37:16.953Z,3.60
2019-01-08T07:38:16.944Z,3.60
2019-01-08T07:39:16.937Z,3.50
2019-01-08T07:40:16.930Z,3.40
2019-01-08T07:41:16.921Z,3.60
2019-01-08T07:42:17.194Z,3.70
2019-01-08T07:43:16.906Z,3.40
2019-01-08T07:44:16.895Z,3.60
2019-01-08T07:45:16.886Z,3.60
2019-01-08T07:46:16.881Z,3.50
2019-01-08T07:47:16.883Z,3.70
2019-01-08T07:48:16.862Z,3.20
2019-01-08T07:49:16.853Z,3.60
2019-01-08T07:50:16.847Z,3.30
2019-01-08T07:51:16.836Z,3.30
2019-01-08T07:52:16.829Z,3.20
2019-01-08T07:53:16.821Z,3.00
2019-01-08T07:54:16.811Z,3.50
2019-01-08T07:55:16.802Z,3.50
2019-01-08T07:56:16.796Z,3.40
2019-01-08T07:57:16.791Z,3.50
2019-01-08T07:58:16.777Z,3.30
2019-01-08T07:59:16.772Z,3.40
2019-01-08T08:00:16.762Z,3.10
2019-01-08T08:01:16.753Z,3.00
2019-01-08T08:02:16.746Z,3.40
2019-01-08T08:03:16.737Z,3.40
2019-01-08T08:04:16.730Z,3.70
2019-01-08T08:05:16.721Z,3.60
2019-01-08T08:06:16.712Z,3.40
2019-01-08T08:07:16.705Z,3.70
2019-01-08T08:08:16.698Z,3.70
2019-01-08T08:09:16.686Z,3.10
2019-01-08T08:10:16.679Z,3.20
2019-01-08T08:11:16.670Z,3.70
2019-01-08T08:12:16.663Z,3.30
2019-01-08T08:13:16.654Z,3.80
2019-01-08T08:14:16.647Z,3.20
2019-01-08T08:15:16.638Z,3.60
2019-01-08T08:16:16.636Z,3.60
2019-01-08T08:17:16.623Z,3.30
2019-01-08T08:18:16.612Z,3.40
2019-01-08T08:19:16.603Z,3.70
2019-01-08T08:20:16.604Z,3.30
2019-01-08T08:21:16.588Z,3.10
2019-01-08T08:22:16.579Z,3.50
2019-01-08T08:23:16.563Z,3.60
2019-01-08T08:24:16.563Z,3.20
2019-01-08T08:25:16.555Z,3.40
2019-01-08T08:26:16.546Z,3.20
2019-01-08T08:27:16.536Z,3.60
2019-01-08T08:28:16.528Z,3.30
2019-01-08T08:29:16.521Z,3.30
2019-01-08T08:30:16.512Z,3.40
2019-01-08T08:31:16.504Z,3.10
2019-01-08T08:32:16.498Z,3.30
2019-01-08T08:33:16.489Z,3.00
2019-01-08T08:34:16.479Z,3.30
2019-01-08T08:35:16.472Z,2.80
2019-01-08T08:36:16.462Z,3.10
2019-01-08T08:37:16.453Z,3.10
2019-01-08T08:38:16.450Z,3.50
2019-01-08T08:39:16.436Z,3.20
2019-01-08T08:40:16.431Z,3.40
2019-01-08T08:41:16.421Z,3.00
2019-01-08T08:42:16.412Z,3.30
2019-01-08T08:43:16.403Z,3.40
2019-01-08T08:44:16.395Z,3.20
2019-01-08T08:45:16.387Z,3.20
2019-01-08T08:46:16.379Z,3.00
2019-01-08T08:47:16.371Z,3.10
2019-01-08T08:48:16.362Z,3.10
2019-01-08T08:49:16.354Z,3.00
2019-01-08T08:50:16.345Z,3.00
2019-01-08T08:51:16.341Z,3.10
2019-01-08T08:52:16.333Z,2.70
2019-01-08T08:53:16.322Z,2.90
2019-01-08T08:54:16.312Z,3.10
2019-01-08T08:55:16.303Z,2.70
2019-01-08T08:56:16.302Z,3.20
2019-01-08T08:57:16.288Z,3.10
2019-01-08T08:58:16.279Z,3.20
2019-01-08T08:59:16.270Z,2.90
2019-01-08T09:00:16.262Z,3.00
2019-01-08T09:01:16.257Z,3.00
2019-01-08T09:02:16.245Z,2.80
2019-01-08T09:03:16.238Z,2.90
2019-01-08T09:04:16.235Z,3.00
2019-01-08T09:05:16.225Z,3.10
2019-01-08T09:06:16.215Z,3.30
2019-01-08T09:07:16.205Z,3.20
2019-01-08T09:08:16.196Z,2.90
2019-01-08T09:09:16.188Z,3.10
2019-01-08T09:10:16.180Z,3.40
2019-01-08T09:11:16.173Z,3.00
2019-01-08T09:12:16.166Z,3.20
2019-01-08T09:13:16.158Z,3.40
2019-01-08T09:14:16.152Z,2.90
2019-01-08T09:15:16.140Z,3.00
2019-01-08T09:16:16.133Z,3.20
2019-01-08T09:17:16.121Z,2.80
2019-01-08T09:18:16.116Z,2.90
2019-01-08T09:19:16.112Z,2.80
2019-01-08T09:20:16.099Z,3.00
2019-01-08T09:21:16.106Z,2.80
2019-01-08T09:22:16.082Z,2.90
2019-01-08T09:23:16.074Z,3.20
2019-01-08T09:24:16.069Z,3.00
2019-01-08T09:25:16.060Z,2.90
2019-01-08T09:26:16.052Z,3.10
2019-01-08T09:27:16.041Z,3.10
2019-01-08T09:28:16.033Z,2.90
2019-01-08T09:29:16.024Z,2.90
2019-01-08T09:30:16.016Z,3.10
2019-01-08T09:31:16.018Z,3.30
2019-01-08T09:32:16.000Z,3.00
2019-01-08T09:33:15.992Z,2.90
2019-01-08T09:34:15.979Z,3.00
2019-01-08T09:35:15.973Z,2.80
2019-01-08T09:36:15.971Z,2.70
2019-01-08T09:37:15.958Z,2.90
2019-01-08T09:38:15.952Z,2.60
2019-01-08T09:39:15.940Z,2.80
2019-01-08T09:40:15.933Z,3.00
2019-01-08T09:41:15.928Z,3.00
2019-01-08T09:42:15.996Z,2.90
2019-01-08T09:43:15.908Z,2.90
2019-01-08T09:44:15.905Z,3.20
2019-01-08T09:45:15.896Z,2.60
2019-01-08T09:46:15.884Z,2.70
2019-01-08T09:47:15.881Z,2.90
2019-01-08T09:48:15.871Z,2.60
2019-01-08T09:49:15.860Z,2.60
2019-01-08T09:50:15.868Z,2.70
2019-01-08T09:51:15.842Z,2.70
2019-01-08T09:52:15.837Z,2.70
2019-01-08T09:53:15.827Z,2.80
2019-01-08T09:54:15.818Z,2.80
2019-01-08T09:55:15.887Z,2.70
2019-01-08T09:56:15.802Z,2.80
2019-01-08T09:57:15.807Z,2.70
2019-01-08T09:58:15.787Z,2.90
2019-01-08T09:59:15.777Z,2.80
2019-01-08T10:00:15.771Z,2.90
2019-01-08T10:01:23.578Z,2.60
2019-01-08T10:02:15.752Z,3.00
2019-01-08T10:03:15.744Z,2.40
2019-01-08T10:04:15.737Z,2.70
2019-01-08T10:05:15.727Z,2.60
2019-01-08T10:06:15.723Z,2.60
2019-01-08T10:07:15.713Z,2.20
2019-01-08T10:08:15.703Z,2.30
2019-01-08T10:09:15.697Z,2.10
2019-01-08T10:10:15.686Z,2.70
2019-01-08T10:11:15.679Z,1.90
2019-01-08T10:12:15.671Z,2.40
2019-01-08T10:13:15.664Z,2.70
2019-01-08T10:14:15.717Z,2.40
2019-01-08T10:15:15.646Z,2.50
2019-01-08T10:16:15.642Z,2.50
2019-01-08T10:17:15.631Z,2.80
2019-01-08T10:18:15.621Z,2.70
2019-01-08T10:19:15.614Z,2.70
2019-01-08T10:20:15.606Z,2.70
2019-01-08T10:21:15.597Z,2.70
2019-01-08T10:22:15.588Z,2.40
2019-01-08T10:23:15.581Z,3.00
2019-01-08T10:24:15.572Z,3.10
2019-01-08T10:25:15.569Z,2.70
2019-01-08T10:26:15.558Z,2.60
2019-01-08T10:27:15.550Z,2.50
2019-01-08T10:28:15.539Z,2.50
2019-01-08T10:29:15.535Z,2.50
2019-01-08T10:30:15.565Z,2.60
2019-01-08T10:31:15.516Z,2.70
2019-01-08T10:32:15.507Z,2.60
2019-01-08T10:33:15.499Z,2.70
2019-01-08T10:34:15.491Z,2.70
2019-01-08T10:35:15.484Z,2.50
2019-01-08T10:36:15.475Z,2.80
2019-01-08T10:37:15.469Z,2.60
2019-01-08T10:38:15.460Z,2.40
2019-01-08T10:39:15.453Z,3.00
2019-01-08T10:40:15.442Z,2.60
2019-01-08T10:41:15.435Z,2.50
2019-01-08T10:42:15.425Z,2.50
2019-01-08T10:43:15.417Z,2.60
2019-01-08T10:44:15.409Z,2.50
2019-01-08T10:45:15.413Z,2.90
2019-01-08T10:46:15.393Z,2.60
2019-01-08T10:47:15.385Z,2.90
2019-01-08T10:48:15.380Z,3.20
2019-01-08T10:49:15.372Z,3.00
2019-01-08T10:50:15.360Z,2.90
2019-01-08T10:51:15.351Z,2.50
2019-01-08T10:52:15.345Z,2.70
2019-01-08T10:53:15.340Z,2.50
2019-01-08T10:54:15.330Z,2.70
2019-01-08T10:55:15.319Z,2.60
2019-01-08T10:56:15.314Z,2.70
2019-01-08T10:57:15.306Z,2.80
2019-01-08T10:58:15.296Z,2.20
2019-01-08T10:59:15.290Z,2.40
2019-01-08T11:00:15.279Z,2.50
2019-01-08T11:01:15.273Z,2.50
2019-01-08T11:02:15.261Z,2.70
2019-01-08T11:03:15.255Z,2.50
2019-01-08T11:04:15.246Z,2.10
2019-01-08T11:05:15.239Z,2.50
2019-01-08T11:06:15.230Z,2.30
2019-01-08T11:07:15.243Z,2.60
2019-01-08T11:08:15.219Z,2.30
2019-01-08T11:09:15.248Z,2.40
2019-01-08T11:10:15.197Z,2.30
2019-01-08T11:11:15.189Z,2.20
2019-01-08T11:12:15.181Z,2.10
2019-01-08T11:13:15.173Z,1.90
2019-01-08T11:14:15.163Z,2.20
2019-01-08T11:15:15.155Z,2.20
2019-01-08T11:16:15.146Z,2.30
2019-01-08T11:17:15.213Z,1.90
2019-01-08T11:18:15.129Z,2.20
2019-01-08T11:19:15.127Z,2.30
2019-01-08T11:20:15.114Z,2.00
2019-01-08T11:21:15.107Z,2.30
2019-01-08T11:22:15.099Z,1.90
2019-01-08T11:23:15.091Z,1.90
2019-01-08T11:24:15.084Z,2.00
2019-01-08T11:25:15.074Z,2.00
2019-01-08T11:26:15.064Z,2.10
2019-01-08T11:27:15.050Z,2.10
2019-01-08T11:28:15.050Z,2.10
2019-01-08T11:29:15.040Z,1.90
2019-01-08T11:30:15.033Z,1.90
2019-01-08T11:31:15.026Z,2.20
2019-01-08T11:32:15.020Z,2.00
2019-01-08T11:33:15.009Z,1.90
2019-01-08T11:34:14.999Z,1.90
2019-01-08T11:35:14.991Z,1.70
2019-01-08T11:36:14.983Z,1.80
2019-01-08T11:37:14.976Z,1.80
2019-01-08T11:38:14.966Z,1.70
2019-01-08T11:39:14.958Z,2.00
2019-01-08T11:40:14.950Z,1.60
2019-01-08T11:41:14.947Z,1.80
2019-01-08T11:42:14.936Z,1.90
2019-01-08T11:43:14.928Z,1.80
2019-01-08T11:44:14.926Z,2.00
2019-01-08T11:45:14.911Z,1.80
2019-01-08T11:46:14.902Z,1.90
2019-01-08T11:47:14.893Z,2.00
2019-01-08T11:48:14.884Z,1.80
2019-01-08T11:49:14.877Z,2.00
2019-01-08T11:50:14.876Z,1.80
2019-01-08T11:51:14.859Z,1.80
2019-01-08T11:52:14.852Z,1.80
2019-01-08T11:53:14.854Z,1.70
2019-01-08T11:54:14.835Z,1.60
2019-01-08T11:55:14.826Z,1.80
2019-01-08T11:56:14.818Z,1.80
2019-01-08T11:57:14.810Z,2.10
2019-01-08T11:58:14.802Z,1.90
2019-01-08T11:59:14.797Z,2.00
2019-01-08T12:00:14.788Z,2.00
2019-01-08T12:01:14.781Z,1.90
2019-01-08T12:02:14.770Z,1.90
2019-01-08T12:03:14.762Z,1.80
2019-01-08T12:04:14.755Z,2.00
2019-01-08T12:05:14.749Z,1.80
2019-01-08T12:06:14.735Z,1.80
2019-01-08T12:07:14.730Z,2.10
2019-01-08T12:08:14.720Z,1.90
2019-01-08T12:09:14.713Z,2.10
2019-01-08T12:10:14.705Z,1.80
2019-01-08T12:11:14.701Z,2.00
2019-01-08T12:12:14.690Z,1.90
2019-01-08T12:13:14.681Z,1.70
2019-01-08T12:14:14.673Z,1.80
2019-01-08T12:15:14.662Z,1.90
2019-01-08T12:16:14.656Z,1.70
2019-01-08T12:17:14.646Z,1.80
2019-01-08T12:18:14.639Z,1.80
2019-01-08T12:19:14.631Z,1.80
2019-01-08T12:20:14.622Z,1.80
2019-01-08T12:21:14.615Z,1.80
2019-01-08T12:22:14.607Z,1.90
2019-01-08T12:23:14.597Z,1.90
2019-01-08T12:24:14.589Z,1.80
2019-01-08T12:25:14.584Z,1.70
2019-01-08T12:26:14.575Z,1.60
2019-01-08T12:27:14.564Z,1.80
2019-01-08T12:28:14.560Z,2.00
2019-01-08T12:29:14.550Z,1.80
2019-01-08T12:30:14.541Z,1.90
2019-01-08T12:31:14.531Z,1.80
2019-01-08T12:32:14.523Z,1.60
2019-01-08T12:33:14.516Z,1.90
2019-01-08T12:34:14.507Z,1.80
2019-01-08T12:35:14.498Z,1.70
2019-01-08T12:36:14.490Z,2.00
2019-01-08T12:37:14.485Z,1.90
2019-01-08T12:38:14.474Z,1.80
2019-01-08T12:39:14.469Z,1.70
2019-01-08T12:40:14.458Z,1.90
2019-01-08T12:41:14.450Z,1.90
2019-01-08T12:42:14.441Z,1.80
2019-01-08T12:43:14.436Z,1.90
2019-01-08T12:44:14.431Z,1.80
2019-01-08T12:45:14.420Z,2.10
2019-01-08T12:46:14.407Z,2.00
2019-01-08T12:47:14.479Z,1.80
2019-01-08T12:48:14.394Z,1.80
2019-01-08T12:49:14.387Z,2.20
2019-01-08T12:50:14.378Z,2.00
2019-01-08T12:51:14.369Z,2.10
2019-01-08T12:52:14.362Z,2.10
2019-01-08T12:53:14.368Z,1.90
2019-01-08T12:54:14.344Z,2.10
2019-01-08T12:55:14.335Z,2.10
2019-01-08T12:56:14.376Z,2.20
2019-01-08T12:57:14.322Z,1.90
2019-01-08T12:58:14.311Z,2.30
2019-01-08T12:59:14.388Z,2.50
2019-01-08T13:00:14.298Z,2.00
2019-01-08T13:01:14.292Z,2.20
2019-01-08T13:02:15.002Z,2.40
2019-01-08T13:03:14.272Z,2.40
2019-01-08T13:04:14.263Z,2.10
2019-01-08T13:05:14.260Z,2.40
2019-01-08T13:06:14.250Z,2.30
2019-01-08T13:07:14.239Z,2.10
2019-01-08T13:08:14.231Z,2.60
2019-01-08T13:09:14.223Z,2.50
2019-01-08T13:10:14.216Z,2.50
2019-01-08T13:11:14.209Z,2.30
2019-01-08T13:12:14.197Z,2.30
2019-01-08T13:13:14.189Z,2.30
2019-01-08T13:14:14.179Z,2.40
2019-01-08T13:15:14.172Z,2.30
2019-01-08T13:16:14.165Z,2.20
2019-01-08T13:17:14.158Z,2.10
2019-01-08T13:18:14.147Z,2.40
2019-01-08T13:19:14.142Z,2.50
2019-01-08T13:20:14.133Z,2.30
2019-01-08T13:21:14.123Z,2.50
2019-01-08T13:22:14.115Z,2.40
2019-01-08T13:23:14.108Z,2.00
2019-01-08T13:24:14.103Z,2.20
2019-01-08T13:25:14.091Z,2.30
2019-01-08T13:26:14.083Z,2.40
2019-01-08T13:27:14.079Z,2.20
2019-01-08T13:28:14.071Z,2.50
2019-01-08T13:29:14.060Z,2.30
2019-01-08T13:30:14.050Z,2.60
2019-01-08T13:31:14.041Z,2.10
2019-01-08T13:32:14.032Z,1.80
2019-01-08T13:33:14.958Z,2.20
2019-01-08T13:34:14.019Z,2.40
2019-01-08T13:35:15.687Z,2.00
2019-01-08T13:36:14.001Z,2.40
2019-01-08T13:37:13.993Z,1.90
2019-01-08T13:38:13.984Z,1.80
2019-01-08T13:39:13.976Z,2.00
2019-01-08T13:40:13.968Z,1.60
2019-01-08T13:41:13.962Z,1.80
2019-01-08T13:42:13.951Z,1.90
2019-01-08T13:43:13.943Z,1.50
2019-01-08T13:44:13.934Z,1.40
2019-01-08T13:45:13.930Z,1.70